Time;durP1;ratioP1;P1;durP2;ratioP2;P2;SDS_P1;SDS_P2;PMS_P1;PMS_P2;Temp;Humidity;BMP_temperature;BMP_pressure;BME280_temperature;BME280_humidity;BME280_pressure;Samples;Min_cycle;Max_cycle;Signal;HPM_P1;HPM_P2
2023/03/26 00:02:07;;;;;;;26.83;6.17;;;;;;;;;;5079775;28;20300;-70
2023/03/26 00:04:33;;;;;;;27.83;8.30;;;;;;;;;;5076842;28;20205;-70
2023/03/26 00:06:59;;;;;;;27.50;6.03;;;;;;;;;;5076415;28;20193;-71
2023/03/26 00:09:25;;;;;;;33.50;5.97;;;;;;;;;;5076813;28;20670;-69
2023/03/26 00:11:51;;;;;;;34.77;5.90;;;;;;;;;;5075270;28;20667;-70
2023/03/26 00:14:17;;;;;;;32.20;6.37;;;;;;;;;;5076546;28;20185;-70
2023/03/26 00:16:44;;;;;;;35.67;7.30;;;;;;;;;;5076666;28;20261;-69
2023/03/26 00:19:11;;;;;;;25.83;5.80;;;;;;;;;;5076890;28;20182;-71
2023/03/26 00:21:37;;;;;;;28.67;6.17;;;;;;;;;;5077000;28;20202;-70
2023/03/26 00:24:05;;;;;;;41.47;6.57;;;;;;;;;;5076429;28;20182;-68
2023/03/26 00:26:32;;;;;;;31.60;6.00;;;;;;;;;;5076437;28;20540;-70
2023/03/26 00:28:59;;;;;;;38.37;6.80;;;;;;;;;;5076555;28;20239;-69
2023/03/26 00:31:25;;;;;;;30.40;6.73;;;;;;;;;;5076315;28;20200;-70
2023/03/26 00:33:55;;;;;;;38.03;8.17;;;;;;;;;;5076549;28;20181;-70
2023/03/26 00:36:21;;;;;;;36.90;7.03;;;;;;;;;;5076915;28;20599;-70
2023/03/26 00:38:47;;;;;;;34.60;6.77;;;;;;;;;;5076384;28;20656;-70
2023/03/26 00:41:24;;;;;;;32.23;6.40;;;;;;;;;;5076491;28;20198;-71
2023/03/26 00:43:52;;;;;;;38.57;6.60;;;;;;;;;;5074956;28;20671;-70
2023/03/26 00:46:18;;;;;;;34.73;6.50;;;;;;;;;;5076148;28;20200;-70
2023/03/26 00:48:44;;;;;;;35.57;7.17;;;;;;;;;;5074658;28;20173;-71
2023/03/26 00:51:11;;;;;;;41.13;6.90;;;;;;;;;;5074598;28;20686;-70
2023/03/26 00:53:40;;;;;;;44.73;6.77;;;;;;;;;;5074520;28;20181;-70
2023/03/26 00:56:06;;;;;;;38.57;7.10;;;;;;;;;;5075903;28;20626;-70
2023/03/26 00:58:33;;;;;;;39.50;7.20;;;;;;;;;;5076120;28;20177;-70
2023/03/26 01:01:01;;;;;;;32.73;6.40;;;;;;;;;;5075498;28;20587;-73
2023/03/26 01:03:29;;;;;;;44.50;7.53;;;;;;;;;;5074566;28;20212;-69
2023/03/26 01:06:01;;;;;;;29.77;6.37;;;;;;;;;;5075657;28;20271;-70
2023/03/26 01:08:37;;;;;;;40.67;6.37;;;;;;;;;;5074141;28;20188;-69
2023/03/26 01:11:06;;;;;;;36.60;6.83;;;;;;;;;;5074028;28;20221;-70
2023/03/26 01:13:37;;;;;;;25.97;5.97;;;;;;;;;;5075382;28;20166;-70
2023/03/26 01:16:08;;;;;;;34.80;6.47;;;;;;;;;;5075474;28;20184;-71
2023/03/26 01:18:39;;;;;;;39.00;7.30;;;;;;;;;;5073975;28;20178;-69
2023/03/26 01:21:07;;;;;;;35.47;7.17;;;;;;;;;;5075257;28;20661;-69
2023/03/26 01:23:47;;;;;;;28.97;6.27;;;;;;;;;;5075103;28;20177;-69
2023/03/26 01:26:13;;;;;;;35.40;6.90;;;;;;;;;;5074996;28;20573;-69
2023/03/26 01:28:40;;;;;;;31.10;6.93;;;;;;;;;;5074439;28;20173;-69
2023/03/26 01:31:12;;;;;;;24.47;6.03;;;;;;;;;;5075022;28;20670;-69
2023/03/26 01:33:42;;;;;;;28.17;5.47;;;;;;;;;;5075267;28;20634;-70
2023/03/26 01:36:08;;;;;;;27.13;5.67;;;;;;;;;;5073502;28;20182;-69
2023/03/26 01:38:37;;;;;;;26.70;5.67;;;;;;;;;;5074907;28;20251;-70
2023/03/26 01:41:22;;;;;;;23.07;5.90;;;;;;;;;;5073565;28;20201;-70
2023/03/26 01:43:54;;;;;;;23.00;6.40;;;;;;;;;;5074723;28;20173;-69
2023/03/26 01:46:21;;;;;;;35.13;6.63;;;;;;;;;;5073300;28;20212;-69
2023/03/26 01:48:48;;;;;;;33.67;6.30;;;;;;;;;;5074828;28;20185;-69
2023/03/26 01:51:23;;;;;;;32.17;6.57;;;;;;;;;;5074540;28;20572;-69
2023/03/26 01:53:49;;;;;;;38.53;6.43;;;;;;;;;;5074758;28;20619;-69
2023/03/26 01:56:28;;;;;;;25.30;6.30;;;;;;;;;;5074348;28;20200;-68
2023/03/26 01:59:09;;;;;;;40.43;7.07;;;;;;;;;;5074491;28;20187;-69
2023/03/26 02:01:43;;;;;;;38.37;6.97;;;;;;;;;;5074251;28;20282;-68
2023/03/26 02:04:09;;;;;;;33.53;6.77;;;;;;;;;;5074508;28;20200;-70
2023/03/26 02:06:41;;;;;;;36.83;6.73;;;;;;;;;;5073913;28;20205;-69
2023/03/26 02:09:08;;;;;;;26.13;6.20;;;;;;;;;;5074085;28;20168;-69
2023/03/26 02:11:36;;;;;;;27.43;5.77;;;;;;;;;;5073945;28;20277;-69
2023/03/26 02:14:04;;;;;;;31.07;5.77;;;;;;;;;;5074240;28;20201;-70
2023/03/26 02:16:30;;;;;;;31.20;6.43;;;;;;;;;;5073879;28;20178;-69
2023/03/26 02:18:58;;;;;;;33.50;6.60;;;;;;;;;;5074071;28;20174;-69
2023/03/26 02:21:25;;;;;;;31.80;6.97;;;;;;;;;;5074427;28;20623;-70
2023/03/26 02:24:01;;;;;;;38.80;7.27;;;;;;;;;;5074083;28;20181;-69
2023/03/26 02:26:27;;;;;;;40.87;6.73;;;;;;;;;;5074077;28;20276;-70
2023/03/26 02:28:53;;;;;;;36.60;6.70;;;;;;;;;;5073335;28;20176;-68
2023/03/26 02:31:20;;;;;;;35.13;6.37;;;;;;;;;;5074185;28;20577;-69
2023/03/26 02:33:48;;;;;;;35.37;6.90;;;;;;;;;;5073946;28;20170;-69
2023/03/26 02:36:14;;;;;;;31.33;5.67;;;;;;;;;;5072688;28;20239;-69
2023/03/26 02:38:40;;;;;;;29.53;7.13;;;;;;;;;;5072403;28;20184;-69
2023/03/26 02:41:07;;;;;;;29.17;5.27;;;;;;;;;;5074210;28;20225;-68
2023/03/26 02:43:33;;;;;;;33.17;6.10;;;;;;;;;;5074013;28;20207;-69
2023/03/26 02:45:59;;;;;;;30.93;6.43;;;;;;;;;;5071940;28;20206;-69
2023/03/26 02:48:25;;;;;;;30.30;6.67;;;;;;;;;;5073248;28;20202;-69
2023/03/26 02:50:53;;;;;;;30.03;7.23;;;;;;;;;;5073403;28;20197;-70
2023/03/26 02:53:20;;;;;;;35.17;7.70;;;;;;;;;;5072814;28;20187;-68
2023/03/26 02:55:46;;;;;;;26.87;5.87;;;;;;;;;;5075054;28;20260;-68
2023/03/26 02:58:16;;;;;;;29.80;6.17;;;;;;;;;;5074798;28;20267;-69
2023/03/26 03:00:43;;;;;;;31.60;6.40;;;;;;;;;;5074589;28;20686;-68
2023/03/26 03:03:10;;;;;;;30.60;6.53;;;;;;;;;;5073580;28;20174;-68
2023/03/26 03:05:36;;;;;;;35.53;6.87;;;;;;;;;;5072988;28;20205;-68
2023/03/26 03:08:04;;;;;;;32.50;6.20;;;;;;;;;;5071834;28;20173;-69
2023/03/26 03:10:31;;;;;;;26.47;6.37;;;;;;;;;;5071806;28;20180;-66
2023/03/26 03:12:57;;;;;;;36.83;6.63;;;;;;;;;;5071610;28;20717;-68
2023/03/26 03:15:23;;;;;;;39.77;6.47;;;;;;;;;;5073214;28;20624;-69
2023/03/26 03:17:50;;;;;;;38.17;6.80;;;;;;;;;;5073617;28;20182;-69
2023/03/26 03:20:16;;;;;;;33.80;6.43;;;;;;;;;;5073282;28;20173;-68
2023/03/26 03:22:42;;;;;;;32.10;6.43;;;;;;;;;;5072644;28;20241;-68
2023/03/26 03:25:13;;;;;;;28.30;6.97;;;;;;;;;;5072701;28;20174;-69
2023/03/26 03:27:39;;;;;;;45.33;8.00;;;;;;;;;;5072760;28;20249;-69
2023/03/26 03:30:06;;;;;;;33.83;7.60;;;;;;;;;;5072665;28;20197;-70
2023/03/26 03:32:32;;;;;;;35.70;7.50;;;;;;;;;;5072655;28;20213;-69
2023/03/26 03:34:57;;;;;;;27.37;6.37;;;;;;;;;;5072685;28;20647;-68
2023/03/26 03:37:25;;;;;;;35.53;6.47;;;;;;;;;;5072613;28;20261;-69
2023/03/26 03:39:51;;;;;;;31.93;6.67;;;;;;;;;;5075886;28;20178;-69
2023/03/26 03:42:17;;;;;;;36.70;6.93;;;;;;;;;;5076686;28;20255;-68
2023/03/26 03:44:43;;;;;;;27.57;5.90;;;;;;;;;;5076513;28;20182;-71
2023/03/26 03:47:12;;;;;;;38.87;6.70;;;;;;;;;;5076442;28;20651;-68
2023/03/26 03:49:38;;;;;;;31.77;7.00;;;;;;;;;;5074889;28;20270;-69
2023/03/26 03:52:04;;;;;;;29.40;7.43;;;;;;;;;;5076352;28;20230;-68
2023/03/26 03:54:30;;;;;;;32.80;7.07;;;;;;;;;;5076152;28;20170;-69
2023/03/26 03:56:56;;;;;;;35.50;6.23;;;;;;;;;;5076103;28;20178;-68
2023/03/26 03:59:22;;;;;;;31.93;7.23;;;;;;;;;;5074861;28;20186;-70
2023/03/26 04:01:49;;;;;;;37.80;7.97;;;;;;;;;;5075887;28;20683;-68
2023/03/26 04:04:15;;;;;;;31.70;7.77;;;;;;;;;;5076045;28;20184;-69
2023/03/26 04:06:41;;;;;;;41.73;10.13;;;;;;;;;;5076235;28;20232;-69
2023/03/26 04:09:09;;;;;;;31.47;7.73;;;;;;;;;;5075925;28;20177;-69
2023/03/26 04:11:35;;;;;;;33.37;8.63;;;;;;;;;;5075054;28;20668;-69
2023/03/26 04:14:01;;;;;;;29.47;7.10;;;;;;;;;;5074592;28;20187;-68
2023/03/26 04:16:27;;;;;;;31.10;6.60;;;;;;;;;;5075712;28;20188;-68
2023/03/26 04:18:53;;;;;;;29.27;6.70;;;;;;;;;;5075727;28;20178;-69
2023/03/26 04:21:19;;;;;;;36.47;7.90;;;;;;;;;;5075679;28;20599;-67
2023/03/26 04:23:45;;;;;;;26.40;6.13;;;;;;;;;;5075655;28;20587;-68
2023/03/26 04:26:15;;;;;;;34.07;6.80;;;;;;;;;;5076066;28;20232;-69
2023/03/26 04:28:45;;;;;;;29.57;6.10;;;;;;;;;;5075886;28;20265;-68
2023/03/26 04:31:14;;;;;;;29.20;6.57;;;;;;;;;;5075660;28;20201;-68
2023/03/26 04:33:45;;;;;;;28.33;6.37;;;;;;;;;;5075368;28;20170;-68
2023/03/26 04:36:11;;;;;;;30.90;6.90;;;;;;;;;;5076193;28;20165;-69
2023/03/26 04:38:40;;;;;;;29.23;6.80;;;;;;;;;;5075400;28;20178;-69
2023/03/26 04:41:06;;;;;;;26.10;5.97;;;;;;;;;;5075213;28;20572;-68
2023/03/26 04:43:35;;;;;;;32.17;6.97;;;;;;;;;;5075852;28;20538;-67
2023/03/26 04:46:02;;;;;;;30.87;7.13;;;;;;;;;;5073893;28;20274;-68
2023/03/26 04:48:29;;;;;;;26.87;5.70;;;;;;;;;;5089771;22;20236;-69
2023/03/26 04:50:55;;;;;;;29.90;6.30;;;;;;;;;;5076886;28;20173;-69
2023/03/26 04:53:21;;;;;;;27.27;6.43;;;;;;;;;;5076900;28;20188;-69
2023/03/26 04:55:54;;;;;;;26.73;6.73;;;;;;;;;;5076903;28;20178;-69
2023/03/26 04:58:20;;;;;;;26.63;6.13;;;;;;;;;;5076414;28;20614;-69
2023/03/26 05:00:48;;;;;;;26.27;6.20;;;;;;;;;;5076692;28;20181;-69
2023/03/26 05:03:14;;;;;;;26.73;6.47;;;;;;;;;;5058125;28;20186;-69
2023/03/26 05:05:40;;;;;;;27.90;5.87;;;;;;;;;;5075766;28;20206;-69
2023/03/26 05:08:07;;;;;;;22.47;5.80;;;;;;;;;;5075540;28;20189;-69
2023/03/26 05:10:33;;;;;;;29.93;5.80;;;;;;;;;;5075509;28;20228;-70
2023/03/26 05:12:59;;;;;;;24.13;5.63;;;;;;;;;;5075595;28;20189;-69
2023/03/26 05:15:25;;;;;;;27.63;6.33;;;;;;;;;;5057653;28;20174;-69
2023/03/26 05:17:54;;;;;;;26.17;5.47;;;;;;;;;;5075815;28;20228;-70
2023/03/26 05:20:21;;;;;;;32.07;6.97;;;;;;;;;;5057625;28;20239;-69
2023/03/26 05:22:48;;;;;;;23.67;6.30;;;;;;;;;;5075285;28;20291;-69
2023/03/26 05:25:14;;;;;;;32.37;6.53;;;;;;;;;;5075909;28;20185;-69
2023/03/26 05:27:40;;;;;;;21.07;5.70;;;;;;;;;;5056931;28;20217;-69
2023/03/26 05:30:06;;;;;;;21.00;5.33;;;;;;;;;;5075136;28;20181;-68
2023/03/26 05:32:33;;;;;;;23.57;6.17;;;;;;;;;;5057329;28;20174;-68
2023/03/26 05:34:59;;;;;;;25.53;5.90;;;;;;;;;;5057567;28;20238;-68
2023/03/26 05:37:29;;;;;;;17.47;5.33;;;;;;;;;;5058126;28;20331;-68
2023/03/26 05:39:56;;;;;;;29.03;5.80;;;;;;;;;;5075201;28;20185;-68
2023/03/26 05:42:22;;;;;;;19.37;5.60;;;;;;;;;;5075163;28;20174;-68
2023/03/26 05:44:48;;;;;;;22.40;6.30;;;;;;;;;;5056642;28;20185;-68
2023/03/26 05:47:14;;;;;;;26.63;6.17;;;;;;;;;;5074074;28;20206;-68
2023/03/26 05:49:40;;;;;;;21.57;6.13;;;;;;;;;;5074690;28;20158;-68
2023/03/26 05:52:06;;;;;;;30.20;7.67;;;;;;;;;;5056962;28;20559;-68
2023/03/26 05:54:32;;;;;;;21.50;6.40;;;;;;;;;;5056836;28;20177;-68
2023/03/26 05:56:59;;;;;;;26.83;6.93;;;;;;;;;;5075175;28;20671;-68
2023/03/26 05:59:25;;;;;;;28.93;7.10;;;;;;;;;;5074767;28;20173;-69
2023/03/26 06:01:53;;;;;;;23.57;6.90;;;;;;;;;;5073760;28;20538;-68
2023/03/26 06:04:19;;;;;;;22.73;6.47;;;;;;;;;;5074383;28;20596;-68
2023/03/26 06:06:45;;;;;;;26.57;7.37;;;;;;;;;;5056262;28;20213;-68
2023/03/26 06:09:12;;;;;;;19.63;5.93;;;;;;;;;;5056291;28;20335;-68
2023/03/26 06:11:38;;;;;;;25.27;6.73;;;;;;;;;;5074577;28;20173;-68
2023/03/26 06:14:04;;;;;;;27.20;7.83;;;;;;;;;;5074121;28;20173;-68
2023/03/26 06:16:30;;;;;;;25.90;8.23;;;;;;;;;;5056011;28;20181;-68
2023/03/26 06:18:56;;;;;;;25.70;8.67;;;;;;;;;;5055768;28;20205;-68
2023/03/26 06:21:22;;;;;;;28.50;6.63;;;;;;;;;;5073780;28;20189;-68
2023/03/26 06:23:48;;;;;;;27.83;5.80;;;;;;;;;;5055887;28;20178;-68
2023/03/26 06:26:15;;;;;;;25.67;6.17;;;;;;;;;;5073737;28;20202;-68
2023/03/26 06:28:41;;;;;;;22.97;5.93;;;;;;;;;;5073610;28;20207;-68
2023/03/26 06:31:06;;;;;;;23.60;7.80;;;;;;;;;;5073823;28;20178;-68
2023/03/26 06:33:32;;;;;;;25.23;8.97;;;;;;;;;;5055544;28;20178;-68
2023/03/26 06:35:59;;;;;;;50.17;16.77;;;;;;;;;;5074181;28;20185;-68
2023/03/26 06:38:24;;;;;;;40.10;10.37;;;;;;;;;;5055773;28;20258;-68
2023/03/26 06:40:51;;;;;;;27.40;7.53;;;;;;;;;;5073988;28;20178;-68
2023/03/26 06:43:17;;;;;;;21.40;6.30;;;;;;;;;;5055417;28;20181;-68
2023/03/26 06:45:43;;;;;;;22.03;6.57;;;;;;;;;;5073485;28;20215;-68
2023/03/26 06:48:09;;;;;;;20.43;6.27;;;;;;;;;;5074776;28;20703;-68
2023/03/26 06:50:35;;;;;;;25.97;6.30;;;;;;;;;;5076289;28;20185;-68
2023/03/26 06:53:01;;;;;;;21.40;5.53;;;;;;;;;;5073551;28;20170;-68
2023/03/26 06:55:28;;;;;;;22.30;5.20;;;;;;;;;;5055466;28;20189;-68
2023/03/26 06:57:56;;;;;;;21.67;5.20;;;;;;;;;;5055753;28;20198;-68
2023/03/26 07:00:22;;;;;;;28.47;5.37;;;;;;;;;;5074367;28;20216;-68
2023/03/26 07:02:49;;;;;;;17.30;4.63;;;;;;;;;;5073274;28;20170;-68
2023/03/26 07:05:15;;;;;;;22.40;5.80;;;;;;;;;;5055724;28;20182;-68
2023/03/26 07:07:41;;;;;;;18.00;6.03;;;;;;;;;;5056897;28;20744;-69
2023/03/26 07:10:07;;;;;;;26.50;5.67;;;;;;;;;;5060975;28;20182;-68
2023/03/26 07:12:33;;;;;;;17.03;4.73;;;;;;;;;;5056121;28;20182;-68
2023/03/26 07:15:00;;;;;;;18.43;4.53;;;;;;;;;;5059893;28;20184;-68
2023/03/26 07:17:26;;;;;;;13.20;4.30;;;;;;;;;;5059477;28;20211;-68
2023/03/26 07:19:53;;;;;;;23.00;6.30;;;;;;;;;;5077210;28;20178;-68
2023/03/26 07:22:20;;;;;;;23.10;5.47;;;;;;;;;;5077079;28;20682;-68
2023/03/26 07:24:46;;;;;;;26.97;5.70;;;;;;;;;;5076990;28;20183;-68
2023/03/26 07:27:15;;;;;;;19.83;5.63;;;;;;;;;;5076850;28;20237;-68
2023/03/26 07:29:44;;;;;;;18.37;5.97;;;;;;;;;;5058833;28;20177;-70
2023/03/26 07:32:10;;;;;;;17.33;5.50;;;;;;;;;;5076776;28;20303;-67
2023/03/26 07:34:37;;;;;;;20.40;5.13;;;;;;;;;;5058845;28;20234;-69
2023/03/26 07:37:02;;;;;;;23.20;5.30;;;;;;;;;;5058719;28;20177;-68
2023/03/26 07:39:31;;;;;;;20.57;5.53;;;;;;;;;;5076775;28;20184;-68
2023/03/26 07:42:03;;;;;;;23.93;5.70;;;;;;;;;;5058721;28;20270;-68
2023/03/26 07:44:32;;;;;;;20.50;5.57;;;;;;;;;;5058608;28;20339;-68
2023/03/26 07:47:00;;;;;;;21.57;5.10;;;;;;;;;;5076323;28;20202;-68
2023/03/26 07:49:28;;;;;;;25.67;5.87;;;;;;;;;;5077188;28;20190;-68
2023/03/26 07:51:54;;;;;;;20.97;6.20;;;;;;;;;;5058497;28;20174;-68
2023/03/26 07:54:20;;;;;;;23.70;5.90;;;;;;;;;;5058448;28;20331;-68
2023/03/26 07:56:59;;;;;;;20.83;5.33;;;;;;;;;;5076440;28;20640;-68
2023/03/26 07:59:44;;;;;;;21.27;5.93;;;;;;;;;;5058703;28;20220;-68
2023/03/26 08:02:33;;;;;;;22.50;5.07;;;;;;;;;;5076777;28;20215;-68
2023/03/26 08:05:17;;;;;;;16.97;5.07;;;;;;;;;;5058302;28;20196;-68
2023/03/26 08:07:54;;;;;;;29.43;5.67;;;;;;;;;;5058194;28;20213;-68
2023/03/26 08:10:30;;;;;;;17.27;5.57;;;;;;;;;;5059038;28;20264;-68
2023/03/26 08:12:58;;;;;;;18.17;5.63;;;;;;;;;;5076646;28;20635;-68
2023/03/26 08:15:31;;;;;;;21.03;5.83;;;;;;;;;;5076309;28;20178;-69
2023/03/26 08:18:05;;;;;;;18.43;5.10;;;;;;;;;;5076345;28;20219;-68
2023/03/26 08:20:40;;;;;;;20.93;4.93;;;;;;;;;;5076692;28;20607;-68
2023/03/26 08:23:45;;;;;;;16.73;5.43;;;;;;;;;;5076403;28;20177;-68
2023/03/26 08:26:14;;;;;;;21.13;6.40;;;;;;;;;;4994049;28;20204;-68
2023/03/26 08:28:54;;;;;;;19.97;5.57;;;;;;;;;;5063570;28;20222;-68
2023/03/26 08:31:23;;;;;;;26.23;6.23;;;;;;;;;;5057987;28;20264;-68
2023/03/26 08:33:49;;;;;;;17.07;6.23;;;;;;;;;;5057925;28;20217;-68
2023/03/26 08:36:15;;;;;;;18.60;6.63;;;;;;;;;;5075951;28;20261;-68
2023/03/26 08:38:41;;;;;;;15.27;4.80;;;;;;;;;;5075472;28;20714;-68
2023/03/26 08:41:10;;;;;;;22.83;5.87;;;;;;;;;;5076237;28;20568;-68
2023/03/26 08:43:55;;;;;;;15.20;4.97;;;;;;;;;;5075707;28;20234;-68
2023/03/26 08:46:45;;;;;;;19.77;4.93;;;;;;;;;;5057546;28;20252;-68
2023/03/26 08:49:30;;;;;;;18.03;5.27;;;;;;;;;;5057226;28;20217;-68
2023/03/26 08:52:14;;;;;;;15.30;5.33;;;;;;;;;;5075481;28;20197;-68
2023/03/26 08:54:54;;;;;;;18.57;5.13;;;;;;;;;;5057513;28;20177;-68
2023/03/26 08:57:39;;;;;;;17.17;4.83;;;;;;;;;;5075644;28;20243;-68
2023/03/26 09:00:05;;;;;;;16.13;5.63;;;;;;;;;;5057621;28;20215;-68
2023/03/26 09:02:50;;;;;;;19.80;5.50;;;;;;;;;;5075615;28;20234;-68
2023/03/26 09:05:36;;;;;;;16.13;5.10;;;;;;;;;;5075786;28;20638;-68
2023/03/26 09:08:21;;;;;;;14.43;5.07;;;;;;;;;;5075409;28;20279;-69
2023/03/26 09:10:50;;;;;;;11.87;4.73;;;;;;;;;;5075643;28;20267;-68
2023/03/26 09:13:35;;;;;;;17.07;4.87;;;;;;;;;;5075317;28;20170;-69
2023/03/26 09:16:07;;;;;;;19.47;5.70;;;;;;;;;;5057511;28;20185;-69
2023/03/26 09:19:05;;;;;;;17.70;5.17;;;;;;;;;;5074907;28;20205;-70
2023/03/26 09:21:50;;;;;;;16.17;4.80;;;;;;;;;;5075005;28;20193;-70
2023/03/26 09:24:16;;;;;;;14.80;5.10;;;;;;;;;;5057598;28;20178;-69
2023/03/26 09:26:42;;;;;;;14.63;4.93;;;;;;;;;;5074939;28;20201;-69
2023/03/26 09:29:11;;;;;;;17.97;4.77;;;;;;;;;;5074659;28;20659;-69
2023/03/26 09:31:58;;;;;;;13.90;4.80;;;;;;;;;;5074734;28;20257;-70
2023/03/26 09:34:24;;;;;;;15.27;5.40;;;;;;;;;;5056901;28;20189;-70
2023/03/26 09:36:55;;;;;;;15.43;6.50;;;;;;;;;;5056473;28;20277;-70
2023/03/26 09:39:25;;;;;;;16.40;5.17;;;;;;;;;;5074967;28;20177;-69
2023/03/26 09:41:58;;;;;;;11.97;4.77;;;;;;;;;;5074621;28;20667;-69
2023/03/26 09:44:36;;;;;;;15.67;4.23;;;;;;;;;;5074745;28;20639;-70
2023/03/26 09:47:05;;;;;;;16.10;5.20;;;;;;;;;;5056087;28;20211;-70
2023/03/26 09:49:43;;;;;;;12.90;4.23;;;;;;;;;;5074305;28;20212;-69
2023/03/26 09:52:19;;;;;;;18.77;4.90;;;;;;;;;;5074686;28;20659;-70
2023/03/26 09:54:53;;;;;;;13.33;4.07;;;;;;;;;;5056147;28;20182;-69
2023/03/26 09:57:37;;;;;;;12.23;4.90;;;;;;;;;;5074555;28;20204;-69
2023/03/26 10:00:03;;;;;;;14.70;5.00;;;;;;;;;;5074285;28;20667;-69
2023/03/26 10:02:29;;;;;;;24.50;6.53;;;;;;;;;;5074367;28;20181;-69
2023/03/26 10:04:58;;;;;;;15.00;5.77;;;;;;;;;;5056117;28;20284;-70
2023/03/26 10:07:30;;;;;;;8.47;4.17;;;;;;;;;;5056089;28;20216;-69
2023/03/26 10:10:14;;;;;;;7.63;2.90;;;;;;;;;;5056140;28;20336;-69
2023/03/26 10:12:45;;;;;;;6.70;2.70;;;;;;;;;;5074284;28;20245;-69
2023/03/26 10:15:21;;;;;;;6.23;2.43;;;;;;;;;;5056522;28;20166;-70
2023/03/26 10:17:56;;;;;;;6.40;2.67;;;;;;;;;;5077350;28;20694;-71
2023/03/26 10:20:32;;;;;;;6.20;2.90;;;;;;;;;;5056412;28;20177;-69
2023/03/26 10:23:08;;;;;;;5.73;2.50;;;;;;;;;;5056319;28;20181;-69
2023/03/26 10:25:35;;;;;;;9.07;2.43;;;;;;;;;;5074386;28;20168;-70
2023/03/26 10:28:13;;;;;;;3.97;2.20;;;;;;;;;;5055818;28;20201;-69
2023/03/26 10:30:41;;;;;;;10.03;2.80;;;;;;;;;;5074103;28;20178;-69
2023/03/26 10:33:07;;;;;;;6.30;2.53;;;;;;;;;;5055949;28;20174;-70
2023/03/26 10:35:33;;;;;;;6.67;2.20;;;;;;;;;;5073818;28;20304;-69
2023/03/26 10:38:17;;;;;;;3.93;2.27;;;;;;;;;;5055492;28;20683;-69
2023/03/26 10:41:04;;;;;;;5.90;2.40;;;;;;;;;;5055743;28;20271;-68
2023/03/26 10:43:43;;;;;;;5.70;2.50;;;;;;;;;;5055482;28;20174;-69
2023/03/26 10:46:27;;;;;;;8.67;2.83;;;;;;;;;;5055349;28;20578;-70
2023/03/26 10:49:02;;;;;;;10.20;2.23;;;;;;;;;;5054615;28;20681;-70
2023/03/26 10:51:31;;;;;;;7.70;1.80;;;;;;;;;;5056693;28;20181;-69
2023/03/26 10:54:17;;;;;;;6.43;2.60;;;;;;;;;;5073551;28;20174;-69
2023/03/26 10:56:48;;;;;;;6.17;2.10;;;;;;;;;;5073111;28;20190;-69
2023/03/26 10:59:15;;;;;;;5.50;2.43;;;;;;;;;;5073305;28;20205;-70
2023/03/26 11:01:46;;;;;;;3.70;1.80;;;;;;;;;;5073299;28;20178;-69
2023/03/26 11:04:18;;;;;;;2.80;1.70;;;;;;;;;;5073979;28;20185;-69
2023/03/26 11:07:03;;;;;;;4.77;2.00;;;;;;;;;;5073144;28;20205;-69
2023/03/26 11:09:40;;;;;;;3.20;1.70;;;;;;;;;;5073391;28;20174;-70
2023/03/26 11:12:25;;;;;;;3.03;1.60;;;;;;;;;;5073482;28;20197;-69
2023/03/26 11:15:07;;;;;;;3.13;1.80;;;;;;;;;;5073271;28;20198;-69
2023/03/26 11:17:33;;;;;;;5.57;1.90;;;;;;;;;;5055148;28;20202;-70
2023/03/26 11:20:03;;;;;;;9.10;2.00;;;;;;;;;;5055309;28;20185;-70
2023/03/26 11:22:34;;;;;;;2.90;1.57;;;;;;;;;;5073065;28;20178;-69
2023/03/26 11:25:15;;;;;;;7.53;1.83;;;;;;;;;;5055363;28;20202;-69
2023/03/26 11:27:53;;;;;;;7.60;2.30;;;;;;;;;;5073380;28;20214;-70
2023/03/26 11:30:28;;;;;;;2.93;1.83;;;;;;;;;;5055149;28;20193;-70
2023/03/26 11:32:57;;;;;;;2.60;1.40;;;;;;;;;;5054917;28;20688;-69
2023/03/26 11:35:23;;;;;;;4.07;1.60;;;;;;;;;;5070195;23;20233;-68
2023/03/26 11:37:57;;;;;;;2.40;1.33;;;;;;;;;;5072945;28;20185;-68
2023/03/26 11:40:23;;;;;;;2.03;1.43;;;;;;;;;;5071592;28;20185;-68
2023/03/26 11:42:51;;;;;;;7.70;1.53;;;;;;;;;;5071657;28;20185;-68
2023/03/26 11:45:22;;;;;;;2.13;1.30;;;;;;;;;;5072681;28;20572;-66
2023/03/26 11:48:02;;;;;;;5.73;1.60;;;;;;;;;;5071246;28;20209;-67
2023/03/26 11:50:31;;;;;;;2.50;1.50;;;;;;;;;;5071357;28;20565;-68
2023/03/26 11:52:58;;;;;;;2.07;1.23;;;;;;;;;;5072582;28;20166;-69
2023/03/26 11:55:26;;;;;;;2.30;1.40;;;;;;;;;;5072549;28;20203;-69
2023/03/26 11:57:53;;;;;;;1.43;1.30;;;;;;;;;;5071269;28;20651;-67
2023/03/26 12:00:21;;;;;;;1.70;1.20;;;;;;;;;;5074962;28;20618;-67
2023/03/26 12:02:48;;;;;;;3.20;1.57;;;;;;;;;;5074861;28;20186;-67
2023/03/26 12:05:25;;;;;;;1.20;1.10;;;;;;;;;;5074750;28;20206;-69
2023/03/26 12:07:55;;;;;;;2.37;1.27;;;;;;;;;;5075901;28;20680;-68
2023/03/26 12:10:23;;;;;;;1.93;1.27;;;;;;;;;;5076554;28;20648;-65
2023/03/26 12:12:51;;;;;;;5.50;1.67;;;;;;;;;;5074453;28;20197;-67
2023/03/26 12:15:18;;;;;;;1.60;1.40;;;;;;;;;;5075710;28;20190;-68
2023/03/26 12:17:45;;;;;;;2.87;1.30;;;;;;;;;;5075782;28;20256;-67
2023/03/26 12:20:24;;;;;;;2.23;1.30;;;;;;;;;;5075728;28;20174;-67
2023/03/26 12:22:51;;;;;;;1.93;1.37;;;;;;;;;;5075769;28;20178;-67
2023/03/26 12:25:21;;;;;;;1.97;1.30;;;;;;;;;;5076317;28;20578;-67
2023/03/26 12:27:48;;;;;;;1.27;1.10;;;;;;;;;;5075977;28;20570;-67
2023/03/26 12:30:20;;;;;;;3.10;1.40;;;;;;;;;;5074365;28;20309;-67
2023/03/26 12:32:47;;;;;;;3.27;1.27;;;;;;;;;;5075830;28;20174;-66
2023/03/26 12:35:17;;;;;;;2.97;1.60;;;;;;;;;;5075608;28;20571;-67
2023/03/26 12:37:44;;;;;;;3.07;1.70;;;;;;;;;;5074430;28;20170;-67
2023/03/26 12:40:26;;;;;;;2.50;1.60;;;;;;;;;;5075540;28;20182;-67
2023/03/26 12:42:53;;;;;;;1.33;1.23;;;;;;;;;;5075471;28;20222;-65
2023/03/26 12:45:39;;;;;;;1.60;1.50;;;;;;;;;;5075551;28;20225;-66
2023/03/26 12:48:06;;;;;;;1.67;1.57;;;;;;;;;;5075555;28;20686;-66
2023/03/26 12:50:41;;;;;;;2.07;1.80;;;;;;;;;;5075490;28;20253;-67
2023/03/26 12:53:07;;;;;;;1.57;1.40;;;;;;;;;;5075477;28;20257;-66
2023/03/26 12:55:57;;;;;;;2.30;1.50;;;;;;;;;;5075221;28;20278;-67
2023/03/26 12:58:41;;;;;;;3.37;1.93;;;;;;;;;;5069886;28;20190;-67
2023/03/26 13:01:33;;;;;;;3.50;2.10;;;;;;;;;;5075739;28;20533;-66
2023/03/26 13:04:07;;;;;;;3.70;2.00;;;;;;;;;;5073233;28;20294;-68
2023/03/26 13:06:56;;;;;;;3.53;1.90;;;;;;;;;;5074973;28;20675;-67
2023/03/26 13:09:41;;;;;;;2.10;1.90;;;;;;;;;;5065947;28;20674;-67
2023/03/26 13:12:29;;;;;;;2.37;1.60;;;;;;;;;;5074705;28;20188;-68
2023/03/26 13:15:07;;;;;;;1.23;1.13;;;;;;;;;;5074999;28;20201;-67
2023/03/26 13:17:56;;;;;;;2.50;1.60;;;;;;;;;;5074776;28;20161;-67
2023/03/26 13:20:31;;;;;;;2.00;1.40;;;;;;;;;;5074883;28;20715;-67
2023/03/26 13:23:27;;;;;;;2.00;1.20;;;;;;;;;;5073432;28;20538;-67
2023/03/26 13:26:14;;;;;;;1.70;1.40;;;;;;;;;;5037621;28;20269;-68
2023/03/26 13:28:51;;;;;;;1.50;1.40;;;;;;;;;;5073342;28;20174;-70
2023/03/26 13:31:35;;;;;;;1.73;1.63;;;;;;;;;;5073450;28;20192;-66
2023/03/26 13:34:21;;;;;;;2.63;1.50;;;;;;;;;;5074390;28;20198;-66
2023/03/26 13:36:59;;;;;;;2.17;1.67;;;;;;;;;;5074379;28;20212;-66
2023/03/26 13:39:44;;;;;;;2.03;1.67;;;;;;;;;;5074356;28;20205;-66
2023/03/26 13:42:38;;;;;;;2.07;1.53;;;;;;;;;;5074297;28;20323;-65
2023/03/26 13:45:04;;;;;;;2.03;1.43;;;;;;;;;;5074586;28;20220;-66
2023/03/26 13:47:32;;;;;;;1.70;1.60;;;;;;;;;;5074136;28;20675;-66
2023/03/26 13:50:18;;;;;;;2.47;1.70;;;;;;;;;;5074169;28;20230;-67
2023/03/26 13:52:51;;;;;;;2.50;2.20;;;;;;;;;;5073929;28;20182;-66
2023/03/26 13:55:17;;;;;;;3.27;2.70;;;;;;;;;;5074346;28;20200;-66
2023/03/26 13:57:48;;;;;;;4.87;2.90;;;;;;;;;;5074292;28;20186;-68
2023/03/26 14:00:26;;;;;;;4.07;3.33;;;;;;;;;;5072911;28;20184;-65
2023/03/26 14:03:02;;;;;;;3.90;3.50;;;;;;;;;;5074088;28;20189;-66
2023/03/26 14:05:38;;;;;;;4.93;3.77;;;;;;;;;;5074615;28;20213;-66
2023/03/26 14:08:16;;;;;;;6.47;3.83;;;;;;;;;;5074359;28;20181;-66
2023/03/26 14:10:45;;;;;;;6.47;3.70;;;;;;;;;;5074162;28;20659;-66
2023/03/26 14:13:19;;;;;;;3.93;3.20;;;;;;;;;;5072401;28;20262;-64
2023/03/26 14:16:05;;;;;;;5.23;3.07;;;;;;;;;;5055871;28;20625;-67
2023/03/26 14:18:44;;;;;;;3.60;2.80;;;;;;;;;;5072455;28;20184;-66
2023/03/26 14:21:25;;;;;;;3.47;2.30;;;;;;;;;;5074049;28;20172;-64
2023/03/26 14:23:51;;;;;;;3.00;2.60;;;;;;;;;;5073356;28;20200;-68
2023/03/26 14:26:36;;;;;;;3.07;2.40;;;;;;;;;;5073575;28;20613;-66
2023/03/26 14:29:12;;;;;;;6.03;3.30;;;;;;;;;;5074058;28;20161;-66
2023/03/26 14:31:38;;;;;;;3.33;2.30;;;;;;;;;;5074093;28;20245;-65
2023/03/26 14:34:16;;;;;;;2.83;2.50;;;;;;;;;;5073382;28;20675;-66
2023/03/26 14:36:45;;;;;;;4.23;2.90;;;;;;;;;;5073427;28;20649;-66
2023/03/26 14:39:26;;;;;;;3.10;2.50;;;;;;;;;;5073492;28;20181;-67
2023/03/26 14:41:57;;;;;;;4.10;2.50;;;;;;;;;;5074017;28;20178;-66
2023/03/26 14:44:26;;;;;;;3.43;2.13;;;;;;;;;;5074380;28;20583;-66
2023/03/26 14:46:59;;;;;;;2.50;1.93;;;;;;;;;;5072246;28;20205;-66
2023/03/26 14:49:32;;;;;;;4.53;2.40;;;;;;;;;;5072276;28;20205;-66
2023/03/26 14:52:15;;;;;;;3.77;2.50;;;;;;;;;;5073614;28;20227;-66
2023/03/26 14:54:43;;;;;;;5.67;3.70;;;;;;;;;;5071940;28;20177;-67
2023/03/26 14:57:28;;;;;;;4.57;2.67;;;;;;;;;;5073376;28;20193;-67